Time;durP1;ratioP1;P1;durP2;ratioP2;P2;SDS_P1;SDS_P2;PMS_P1;PMS_P2;Temp;Humidity;BMP_temperature;BMP_pressure;BME280_temperature;BME280_humidity;BME280_pressure;Samples;Min_cycle;Max_cycle;Signal;HPM_P1;HPM_P2
2023/04/30 00:01:41;;;;;;;10.13;6.87;;;;;;;4.48;100.00;102218.72;5054654;28;21001;-44
2023/04/30 00:04:09;;;;;;;8.47;7.10;;;;;;;4.49;100.00;102222.19;5055358;28;20463;-43
2023/04/30 00:06:38;;;;;;;8.20;6.40;;;;;;;4.44;100.00;102221.72;5052286;28;20471;-42
2023/04/30 00:09:06;;;;;;;8.90;6.60;;;;;;;4.38;100.00;102227.50;5047812;28;20517;-45
2023/04/30 00:11:33;;;;;;;13.23;6.53;;;;;;;4.30;100.00;102240.47;5048255;28;20455;-43
2023/04/30 00:14:01;;;;;;;8.77;6.80;;;;;;;4.22;100.00;102243.69;5049908;28;20431;-46
2023/04/30 00:16:29;;;;;;;12.03;6.50;;;;;;;4.16;100.00;102246.81;5050720;28;20431;-44
2023/04/30 00:18:56;;;;;;;13.50;7.17;;;;;;;4.09;100.00;102231.56;5049861;28;20423;-42
2023/04/30 00:21:25;;;;;;;10.13;6.40;;;;;;;4.02;100.00;102233.00;5048583;28;20474;-44
2023/04/30 00:23:54;;;;;;;8.50;7.03;;;;;;;3.95;100.00;102231.75;5049350;28;20441;-43
2023/04/30 00:26:21;;;;;;;12.07;7.03;;;;;;;3.90;100.00;102243.53;5053409;28;20474;-44
2023/04/30 00:28:49;;;;;;;15.63;6.97;;;;;;;3.83;100.00;102244.94;5048994;28;20773;-42
2023/04/30 00:31:17;;;;;;;14.97;6.73;;;;;;;3.79;100.00;102259.31;5047656;28;20471;-44
2023/04/30 00:33:45;;;;;;;10.77;6.83;;;;;;;3.76;100.00;102254.28;5048814;28;20435;-45
2023/04/30 00:36:12;;;;;;;7.93;6.90;;;;;;;3.71;100.00;102251.16;5048798;28;20432;-42
2023/04/30 00:38:40;;;;;;;8.37;6.73;;;;;;;3.70;100.00;102251.28;5048665;28;20489;-43
2023/04/30 00:41:10;;;;;;;7.93;6.30;;;;;;;3.65;100.00;102256.88;5047703;28;20474;-44
2023/04/30 00:43:38;;;;;;;9.03;7.00;;;;;;;3.59;100.00;102257.34;5049538;28;20812;-43
2023/04/30 00:46:05;;;;;;;12.73;7.40;;;;;;;3.55;100.00;102260.34;5049065;28;20443;-43
2023/04/30 00:48:33;;;;;;;9.93;6.43;;;;;;;3.51;100.00;102267.63;5048825;28;20497;-42
2023/04/30 00:51:02;;;;;;;10.03;7.27;;;;;;;3.48;100.00;102259.94;5048531;28;20468;-42
2023/04/30 00:53:31;;;;;;;8.47;7.07;;;;;;;3.46;100.00;102272.41;5039447;28;20518;-44
2023/04/30 00:55:59;;;;;;;8.60;7.10;;;;;;;3.45;100.00;102262.81;5048430;28;20436;-42
2023/04/30 00:58:28;;;;;;;7.80;7.00;;;;;;;3.46;100.00;102258.38;5048396;28;20435;-43
2023/04/30 01:00:56;;;;;;;7.60;6.90;;;;;;;3.46;100.00;102269.78;5048219;28;20568;-45
2023/04/30 01:03:23;;;;;;;10.23;6.80;;;;;;;3.46;100.00;102261.88;5047788;28;20441;-43
2023/04/30 01:05:52;;;;;;;7.30;6.67;;;;;;;3.46;100.00;102276.84;5048456;28;20436;-42
2023/04/30 01:08:20;;;;;;;9.73;7.33;;;;;;;3.46;100.00;102274.22;5047501;28;20483;-42
2023/04/30 01:10:53;;;;;;;9.53;6.27;;;;;;;3.46;100.00;102272.41;5047866;28;20459;-43
2023/04/30 01:13:29;;;;;;;14.63;6.80;;;;;;;3.48;100.00;102273.13;5044873;28;20431;-42
2023/04/30 01:16:07;;;;;;;12.30;7.60;;;;;;;3.48;100.00;102269.66;5048300;28;20437;-43
2023/04/30 01:18:41;;;;;;;8.10;7.30;;;;;;;3.48;100.00;102264.38;5048218;28;20431;-42
2023/04/30 01:21:09;;;;;;;8.97;7.40;;;;;;;3.52;100.00;102268.47;5047276;28;20524;-44
2023/04/30 01:23:54;;;;;;;8.50;7.60;;;;;;;3.54;100.00;102264.78;5048089;28;20840;-44
2023/04/30 01:26:39;;;;;;;8.57;7.67;;;;;;;3.57;100.00;102261.06;5051477;28;20840;-44
2023/04/30 01:29:10;;;;;;;11.57;7.30;;;;;;;3.64;100.00;102262.28;5046000;28;21033;-44
2023/04/30 01:31:37;;;;;;;11.00;8.07;;;;;;;3.68;100.00;102269.84;5047982;28;20463;-42
2023/04/30 01:34:05;;;;;;;8.43;7.40;;;;;;;3.71;100.00;102266.97;5047850;28;20442;-42
2023/04/30 01:36:45;;;;;;;10.63;7.77;;;;;;;3.70;100.00;102265.28;5048362;28;20438;-45
2023/04/30 01:39:26;;;;;;;11.10;8.40;;;;;;;3.68;100.00;102271.63;5048335;28;20435;-43
2023/04/30 01:42:02;;;;;;;13.63;8.50;;;;;;;3.60;100.00;102266.94;5047118;28;21157;-46
2023/04/30 01:44:49;;;;;;;8.47;7.70;;;;;;;3.54;100.00;102270.03;5047403;28;20984;-43
2023/04/30 01:47:27;;;;;;;9.57;7.97;;;;;;;3.45;100.00;102275.16;5047418;28;21003;-42
2023/04/30 01:50:03;;;;;;;11.13;8.20;;;;;;;3.37;100.00;102280.16;5046267;28;20455;-44
2023/04/30 01:52:39;;;;;;;8.63;7.80;;;;;;;3.27;100.00;102274.72;5047864;28;20474;-43
2023/04/30 01:55:11;;;;;;;8.73;7.83;;;;;;;3.21;100.00;102278.66;5047986;28;20435;-43
2023/04/30 01:57:43;;;;;;;11.70;8.20;;;;;;;3.14;100.00;102282.66;5039985;28;20431;-42
2023/04/30 02:00:13;;;;;;;9.40;8.27;;;;;;;3.08;100.00;102288.38;5047750;28;20473;-43
2023/04/30 02:02:41;;;;;;;10.17;9.17;;;;;;;3.02;100.00;102287.97;5041317;28;20420;-43
2023/04/30 02:05:09;;;;;;;9.60;8.70;;;;;;;2.99;100.00;102296.94;5047386;28;21151;-43
2023/04/30 02:07:42;;;;;;;12.90;10.43;;;;;;;2.94;100.00;102298.22;5048500;28;20479;-42
2023/04/30 02:10:11;;;;;;;16.03;10.10;;;;;;;2.90;100.00;102291.50;5047317;28;20486;-42
2023/04/30 02:12:40;;;;;;;9.67;8.67;;;;;;;2.85;100.00;102297.09;5045853;28;20809;-42
2023/04/30 02:15:09;;;;;;;11.70;9.70;;;;;;;2.82;100.00;102301.75;5047888;28;20473;-44
2023/04/30 02:17:38;;;;;;;11.23;9.60;;;;;;;2.79;100.00;102301.00;5047095;28;20432;-43
2023/04/30 02:20:07;;;;;;;14.10;9.30;;;;;;;2.75;100.00;102306.59;5047351;28;20486;-43
2023/04/30 02:22:35;;;;;;;10.27;9.20;;;;;;;2.69;100.00;102313.13;5047892;28;20432;-43
2023/04/30 02:25:03;;;;;;;15.27;9.33;;;;;;;2.64;100.00;102296.81;5050582;28;20800;-43
2023/04/30 02:27:33;;;;;;;11.70;9.03;;;;;;;2.61;100.00;102307.56;5046885;28;20485;-43
2023/04/30 02:30:01;;;;;;;11.20;8.87;;;;;;;2.57;100.00;102305.28;5047350;28;20482;-45
2023/04/30 02:32:29;;;;;;;15.33;9.33;;;;;;;2.56;100.00;102309.69;5049202;28;20428;-43
2023/04/30 02:34:58;;;;;;;10.83;9.07;;;;;;;2.58;100.00;102312.19;5050892;28;20435;-43
2023/04/30 02:37:26;;;;;;;14.43;9.53;;;;;;;2.60;100.00;102311.16;5051348;28;20423;-43
2023/04/30 02:39:53;;;;;;;13.33;8.40;;;;;;;2.64;100.00;102312.63;5050881;28;20454;-46
2023/04/30 02:42:21;;;;;;;14.43;9.00;;;;;;;2.69;100.00;102310.50;5049662;28;20818;-43
2023/04/30 02:44:49;;;;;;;10.83;9.27;;;;;;;2.73;100.00;102306.72;5051369;28;20435;-43
2023/04/30 02:47:17;;;;;;;10.60;9.60;;;;;;;2.80;100.00;102315.03;5051399;28;20587;-44
2023/04/30 02:49:45;;;;;;;15.90;9.20;;;;;;;2.82;100.00;102313.13;5050551;28;20835;-46
2023/04/30 02:52:14;;;;;;;12.70;9.57;;;;;;;2.85;100.00;102309.41;5050340;28;20455;-46
2023/04/30 02:54:41;;;;;;;11.03;9.93;;;;;;;2.87;100.00;102315.44;5050514;28;20522;-44
2023/04/30 02:57:09;;;;;;;12.37;9.60;;;;;;;2.88;100.00;102314.47;5052107;28;20435;-43
2023/04/30 02:59:37;;;;;;;10.77;8.70;;;;;;;2.91;100.00;102311.63;5052010;28;20814;-45
2023/04/30 03:02:05;;;;;;;10.77;9.53;;;;;;;2.92;100.00;102314.16;5051079;28;20451;-44
2023/04/30 03:04:32;;;;;;;11.33;10.10;;;;;;;2.92;100.00;102316.81;5050550;28;20427;-42
2023/04/30 03:07:00;;;;;;;13.67;10.00;;;;;;;2.91;100.00;102320.38;5050568;28;20836;-46
2023/04/30 03:09:30;;;;;;;10.20;9.20;;;;;;;2.88;100.00;102302.16;5049525;28;20461;-47
2023/04/30 03:11:58;;;;;;;12.20;8.53;;;;;;;2.89;100.00;102313.53;5050129;28;20451;-42
2023/04/30 03:14:25;;;;;;;10.20;9.17;;;;;;;2.90;100.00;102309.97;5051072;28;20450;-43
2023/04/30 03:16:53;;;;;;;13.87;9.43;;;;;;;2.91;100.00;102316.91;5051832;28;20637;-47
2023/04/30 03:19:24;;;;;;;13.37;10.73;;;;;;;2.88;100.00;102315.31;5049751;28;20423;-43
2023/04/30 03:21:51;;;;;;;12.00;9.60;;;;;;;2.89;100.00;102316.16;5050452;28;20482;-42
2023/04/30 03:24:19;;;;;;;10.33;9.43;;;;;;;2.91;100.00;102324.78;5050012;28;20427;-43
2023/04/30 03:26:48;;;;;;;13.30;10.40;;;;;;;2.93;100.00;102329.00;5051943;28;20447;-42
2023/04/30 03:29:16;;;;;;;10.60;9.60;;;;;;;2.96;100.00;102327.94;5049178;28;20482;-43
2023/04/30 03:31:44;;;;;;;11.40;9.37;;;;;;;2.98;100.00;102328.69;5050495;28;20470;-42
2023/04/30 03:34:12;;;;;;;9.80;8.90;;;;;;;3.02;100.00;102333.63;5050675;28;20443;-43
2023/04/30 03:36:39;;;;;;;9.73;8.93;;;;;;;3.08;100.00;102334.97;5051050;28;21195;-42
2023/04/30 03:39:08;;;;;;;10.80;9.23;;;;;;;3.11;100.00;102338.25;5049673;28;20454;-43
2023/04/30 03:41:36;;;;;;;12.23;9.70;;;;;;;3.16;100.00;102338.78;5051473;28;20512;-42
2023/04/30 03:44:05;;;;;;;10.30;9.33;;;;;;;3.22;100.00;102340.13;5049269;28;20515;-44
2023/04/30 03:46:33;;;;;;;11.67;10.40;;;;;;;3.25;100.00;102338.13;5048075;28;21228;-45
2023/04/30 03:49:01;;;;;;;11.70;9.43;;;;;;;3.32;100.00;102346.41;5050172;28;20879;-43
2023/04/30 03:51:28;;;;;;;11.63;9.90;;;;;;;3.35;100.00;102343.53;5050958;28;20527;-43
2023/04/30 03:53:56;;;;;;;11.90;9.40;;;;;;;3.44;100.00;102339.38;5050220;28;20983;-42
2023/04/30 03:56:24;;;;;;;11.53;10.43;;;;;;;3.52;100.00;102351.09;5050478;28;20435;-43
2023/04/30 03:58:52;;;;;;;11.87;9.87;;;;;;;3.60;100.00;102351.38;5047191;28;20431;-45
2023/04/30 04:01:21;;;;;;;11.97;9.73;;;;;;;3.70;100.00;102357.63;5049733;28;20513;-43
2023/04/30 04:03:49;;;;;;;11.37;10.27;;;;;;;3.79;100.00;102345.56;5049691;28;20431;-43
2023/04/30 04:06:17;;;;;;;12.37;11.20;;;;;;;3.86;100.00;102352.06;5049978;28;20946;-44
2023/04/30 04:08:45;;;;;;;13.83;11.30;;;;;;;3.95;100.00;102346.09;5049600;28;20536;-42
2023/04/30 04:11:12;;;;;;;11.47;10.57;;;;;;;4.02;100.00;102341.22;5048322;28;21226;-43
2023/04/30 04:13:40;;;;;;;11.17;9.57;;;;;;;4.15;100.00;102341.97;5047383;28;20437;-42
2023/04/30 04:16:08;;;;;;;9.43;8.63;;;;;;;4.26;100.00;102342.00;5049687;28;20779;-44
2023/04/30 04:18:37;;;;;;;18.47;9.20;;;;;;;4.36;100.00;102346.44;5049791;28;20427;-43
2023/04/30 04:21:05;;;;;;;12.93;8.37;;;;;;;4.46;100.00;102346.59;5049892;28;20478;-42
2023/04/30 04:23:33;;;;;;;11.70;9.90;;;;;;;4.60;100.00;102351.63;5049119;28;20953;-45
2023/04/30 04:26:02;;;;;;;13.40;9.77;;;;;;;4.73;100.00;102348.91;5052644;28;20497;-45
2023/04/30 04:28:29;;;;;;;8.53;7.83;;;;;;;4.88;100.00;102347.69;5048973;28;20471;-42
2023/04/30 04:30:57;;;;;;;11.20;8.53;;;;;;;5.03;100.00;102349.13;5048692;28;20497;-43
2023/04/30 04:33:25;;;;;;;10.10;8.83;;;;;;;5.20;100.00;102350.41;5048336;28;20431;-43
2023/04/30 04:35:54;;;;;;;12.43;8.83;;;;;;;5.51;100.00;102349.63;5048768;28;20431;-45
2023/04/30 04:38:21;;;;;;;10.13;9.10;;;;;;;6.17;100.00;102358.31;5049034;28;20435;-46
2023/04/30 04:40:52;;;;;;;13.07;8.60;;;;;;;6.88;100.00;102360.09;5049676;28;20467;-44
2023/04/30 04:43:20;;;;;;;9.80;8.00;;;;;;;7.18;100.00;102355.59;5049142;28;20427;-44
2023/04/30 04:45:48;;;;;;;8.40;7.60;;;;;;;7.63;100.00;102365.75;5048737;28;20843;-45
2023/04/30 04:48:16;;;;;;;9.53;8.63;;;;;;;7.94;100.00;102364.66;5048625;28;20435;-48
2023/04/30 04:50:43;;;;;;;9.53;8.70;;;;;;;8.44;100.00;102367.16;5047995;28;20467;-43
2023/04/30 04:53:12;;;;;;;12.67;7.60;;;;;;;9.24;100.00;102360.25;5047944;28;20438;-43
2023/04/30 04:55:40;;;;;;;9.53;8.27;;;;;;;10.33;100.00;102354.69;5048124;28;20427;-45
2023/04/30 04:58:08;;;;;;;8.37;7.63;;;;;;;11.60;100.00;102361.75;5048482;28;20427;-45
2023/04/30 05:00:36;;;;;;;11.30;9.03;;;;;;;12.62;100.00;102343.41;5047761;28;21201;-45
2023/04/30 05:03:04;;;;;;;9.77;7.90;;;;;;;13.49;91.94;102353.97;5048174;28;20442;-44
2023/04/30 05:05:32;;;;;;;10.70;9.07;;;;;;;14.39;83.45;102354.97;5048546;28;20801;-43
2023/04/30 05:07:59;;;;;;;8.47;7.73;;;;;;;15.07;64.51;102361.94;5047905;28;20427;-41
2023/04/30 05:10:29;;;;;;;7.07;6.60;;;;;;;15.28;57.26;102362.00;5048047;28;20528;-41
2023/04/30 05:12:56;;;;;;;9.73;6.80;;;;;;;15.10;53.77;102357.03;5047928;28;20506;-42
2023/04/30 05:15:24;;;;;;;10.10;7.63;;;;;;;15.45;61.19;102363.44;5048579;28;20446;-42
2023/04/30 05:17:52;;;;;;;9.23;7.43;;;;;;;15.60;55.56;102366.94;5049177;28;20427;-44
2023/04/30 05:20:20;;;;;;;7.47;6.10;;;;;;;15.74;51.50;102360.69;5047206;28;20545;-44
2023/04/30 05:22:47;;;;;;;6.33;5.73;;;;;;;15.78;51.96;102361.97;5047943;28;20465;-43
2023/04/30 05:25:15;;;;;;;6.07;5.50;;;;;;;16.02;53.75;102366.97;5051832;28;20441;-45
2023/04/30 05:27:44;;;;;;;7.90;6.80;;;;;;;16.17;45.87;102366.06;5048322;28;20426;-46
2023/04/30 05:30:14;;;;;;;6.20;5.10;;;;;;;15.80;46.17;102376.06;5047196;28;20467;-45
2023/04/30 05:32:42;;;;;;;7.37;6.30;;;;;;;16.03;54.48;102373.19;5048170;28;20427;-46
2023/04/30 05:35:10;;;;;;;6.20;5.60;;;;;;;16.23;45.58;102374.19;5047953;28;20426;-44
2023/04/30 05:37:38;;;;;;;6.83;6.13;;;;;;;16.54;45.10;102369.31;5048169;28;20492;-43
2023/04/30 05:40:07;;;;;;;8.10;5.30;;;;;;;16.51;44.14;102368.84;5046888;28;21004;-43
2023/04/30 05:42:35;;;;;;;6.13;5.33;;;;;;;16.23;42.21;102373.34;5047102;28;20493;-44
2023/04/30 05:45:05;;;;;;;6.07;4.57;;;;;;;16.41;50.07;102381.78;5048006;28;20431;-43
2023/04/30 05:47:33;;;;;;;5.53;4.80;;;;;;;16.27;43.67;102380.03;5049499;28;20445;-46
2023/04/30 05:50:01;;;;;;;10.57;4.93;;;;;;;16.33;43.78;102381.94;5047167;28;20466;-43
2023/04/30 05:52:28;;;;;;;8.30;5.80;;;;;;;16.02;45.24;102387.66;5048092;28;20427;-43
2023/04/30 05:54:56;;;;;;;5.30;4.30;;;;;;;15.50;42.39;102380.69;5047796;28;20466;-44
2023/04/30 05:57:25;;;;;;;10.57;4.57;;;;;;;14.31;45.57;102388.03;5045820;28;20439;-43
2023/04/30 05:59:53;;;;;;;6.43;4.80;;;;;;;14.52;45.80;102395.41;5047366;28;20537;-43
2023/04/30 06:02:23;;;;;;;8.03;4.90;;;;;;;14.52;45.28;102395.41;5047765;28;20447;-46
2023/04/30 06:04:51;;;;;;;7.60;4.87;;;;;;;15.13;47.02;102394.28;5047572;28;20430;-43
2023/04/30 06:07:18;;;;;;;6.50;4.97;;;;;;;14.84;44.09;102397.78;5051667;28;20715;-44
2023/04/30 06:09:46;;;;;;;6.97;4.47;;;;;;;15.49;44.51;102394.34;5051677;28;20501;-45
2023/04/30 06:12:14;;;;;;;4.40;4.10;;;;;;;15.72;44.66;102386.94;5051121;28;21502;-45
2023/04/30 06:14:44;;;;;;;4.50;4.10;;;;;;;15.34;41.95;102388.13;5052552;28;20427;-43
2023/04/30 06:17:12;;;;;;;5.00;4.60;;;;;;;15.53;43.75;102395.63;5052119;28;20782;-43
2023/04/30 06:19:41;;;;;;;5.63;4.70;;;;;;;15.60;42.29;102404.59;5051738;28;20514;-44
2023/04/30 06:22:08;;;;;;;5.73;5.13;;;;;;;15.54;41.82;102408.03;5050979;28;20458;-46
2023/04/30 06:24:36;;;;;;;4.50;4.00;;;;;;;15.99;40.09;102406.88;5052781;28;20488;-43
2023/04/30 06:27:04;;;;;;;8.10;5.07;;;;;;;15.44;41.99;102404.81;5054744;28;20466;-45
2023/04/30 06:29:31;;;;;;;5.80;4.77;;;;;;;16.31;42.00;102403.66;5051324;28;20936;-43
2023/04/30 06:31:59;;;;;;;4.73;4.10;;;;;;;16.45;39.62;102401.94;5051815;28;20500;-45
2023/04/30 06:34:27;;;;;;;6.70;5.00;;;;;;;16.55;40.16;102402.44;5052231;28;20522;-46
2023/04/30 06:36:56;;;;;;;7.60;3.77;;;;;;;16.39;41.03;102408.09;5051494;28;20419;-45
2023/04/30 06:39:24;;;;;;;5.60;4.20;;;;;;;15.81;40.44;102406.50;5050406;28;20866;-44
2023/04/30 06:41:51;;;;;;;5.07;4.57;;;;;;;16.01;41.81;102415.59;5050634;28;20546;-43
2023/04/30 06:44:20;;;;;;;6.63;4.17;;;;;;;16.20;40.67;102409.56;5051314;28;20458;-44
2023/04/30 06:46:48;;;;;;;7.63;3.83;;;;;;;16.51;40.53;102410.06;5051754;28;20427;-43
2023/04/30 06:49:16;;;;;;;7.43;3.90;;;;;;;15.50;41.01;102412.97;5050425;28;20430;-45
2023/04/30 06:51:43;;;;;;;4.80;4.10;;;;;;;14.53;41.99;102423.09;5051227;28;20977;-43
2023/04/30 06:54:13;;;;;;;5.50;4.00;;;;;;;15.19;42.36;102420.41;5051737;28;20453;-45
2023/04/30 06:56:41;;;;;;;6.90;4.93;;;;;;;13.69;45.06;102421.34;5050555;28;20527;-44
2023/04/30 06:59:09;;;;;;;4.30;4.00;;;;;;;13.52;44.76;102420.59;5051989;28;20433;-43
2023/04/30 07:01:36;;;;;;;5.00;4.00;;;;;;;14.15;41.64;102419.53;5051004;28;20558;-43
2023/04/30 07:04:04;;;;;;;5.33;3.50;;;;;;;13.38;46.07;102413.28;5050955;28;20431;-44
2023/04/30 07:06:32;;;;;;;5.07;4.50;;;;;;;13.94;45.08;102414.84;5051690;28;20442;-43
2023/04/30 07:09:00;;;;;;;5.80;4.33;;;;;;;14.62;42.48;102409.44;5051148;28;20925;-43
2023/04/30 07:11:29;;;;;;;4.17;3.83;;;;;;;15.11;42.70;102415.13;5049904;28;20473;-46
2023/04/30 07:13:57;;;;;;;5.17;4.00;;;;;;;15.46;40.61;102414.34;5052007;28;20549;-43
2023/04/30 07:16:26;;;;;;;6.70;3.60;;;;;;;15.09;42.03;102421.69;5031274;28;20435;-43
2023/04/30 07:18:55;;;;;;;6.03;4.90;;;;;;;14.61;42.55;102423.88;5034668;28;20486;-42
2023/04/30 07:21:24;;;;;;;4.57;4.10;;;;;;;13.55;45.45;102428.31;5037105;28;20502;-43
2023/04/30 07:23:51;;;;;;;5.80;4.17;;;;;;;12.72;45.33;102429.72;5038907;28;20438;-41
2023/04/30 07:26:19;;;;;;;6.43;4.33;;;;;;;12.06;46.73;102440.56;5057957;28;20439;-41
2023/04/30 07:28:48;;;;;;;6.53;4.70;;;;;;;12.11;48.28;102432.88;5059523;28;20475;-43
2023/04/30 07:31:16;;;;;;;4.33;3.93;;;;;;;12.23;50.08;102442.25;5058684;28;20506;-43
2023/04/30 07:33:44;;;;;;;5.70;3.97;;;;;;;11.78;51.00;102445.34;5059294;28;20453;-43
2023/04/30 07:36:12;;;;;;;3.70;3.50;;;;;;;12.10;50.36;102445.41;5059128;28;20431;-41
2023/04/30 07:38:39;;;;;;;4.57;4.30;;;;;;;11.96;50.83;102448.75;5059119;28;20454;-42
2023/04/30 07:41:08;;;;;;;6.60;4.73;;;;;;;12.20;51.31;102451.47;5057982;28;20551;-46
2023/04/30 07:43:36;;;;;;;4.57;4.17;;;;;;;11.59;51.93;102449.09;5058479;28;20530;-46
2023/04/30 07:46:05;;;;;;;6.07;4.80;;;;;;;11.38;53.20;102455.88;5058354;28;20462;-41
2023/04/30 07:48:33;;;;;;;4.50;4.10;;;;;;;11.59;52.66;102454.44;5057866;28;20435;-44
2023/04/30 07:51:00;;;;;;;4.90;4.43;;;;;;;11.64;53.16;102457.50;5055491;28;20471;-47
2023/04/30 07:53:28;;;;;;;5.10;4.60;;;;;;;12.10;51.83;102450.75;5055904;28;20881;-41
2023/04/30 07:55:56;;;;;;;7.83;4.53;;;;;;;12.49;50.20;102455.47;5057269;28;20466;-42
2023/04/30 07:58:23;;;;;;;4.70;4.33;;;;;;;11.66;50.07;102454.63;5057711;28;20427;-44
2023/04/30 08:00:52;;;;;;;8.10;5.60;;;;;;;12.06;51.03;102453.94;5055572;28;20463;-47
2023/04/30 08:03:21;;;;;;;4.50;4.10;;;;;;;12.00;50.83;102451.94;5057011;28;20941;-44
2023/04/30 08:05:49;;;;;;;5.97;4.93;;;;;;;12.01;52.16;102446.41;5057488;28;20451;-43
2023/04/30 08:08:16;;;;;;;5.33;4.63;;;;;;;12.10;50.51;102450.75;5057777;28;20424;-44
2023/04/30 08:10:44;;;;;;;5.40;4.90;;;;;;;12.56;49.27;102451.97;5054752;28;20501;-45
2023/04/30 08:13:12;;;;;;;4.77;4.33;;;;;;;12.84;49.35;102448.94;5056017;28;20435;-40
2023/04/30 08:15:41;;;;;;;4.77;4.23;;;;;;;13.44;46.03;102442.06;5058137;28;20518;-43
2023/04/30 08:18:09;;;;;;;5.57;5.03;;;;;;;13.71;46.36;102444.28;5057571;28;20526;-42
2023/04/30 08:20:39;;;;;;;6.90;5.30;;;;;;;13.43;48.06;102453.81;5056527;28;20517;-44
2023/04/30 08:23:07;;;;;;;7.27;5.40;;;;;;;13.34;49.06;102449.50;5057579;28;20427;-48
2023/04/30 08:25:35;;;;;;;5.00;4.30;;;;;;;13.17;50.15;102456.72;5058691;28;20439;-44
2023/04/30 08:28:03;;;;;;;5.10;4.70;;;;;;;12.46;51.84;102463.81;5057127;28;20451;-45
2023/04/30 08:30:31;;;;;;;4.80;4.43;;;;;;;12.59;48.82;102462.34;5055404;28;20836;-44
2023/04/30 08:32:58;;;;;;;4.47;4.00;;;;;;;12.79;49.46;102473.53;5056596;28;20431;-44
2023/04/30 08:35:28;;;;;;;5.60;4.90;;;;;;;13.04;52.35;102471.66;5057353;28;20511;-46
2023/04/30 08:37:57;;;;;;;4.00;3.70;;;;;;;13.18;49.18;102479.84;5057597;28;20423;-43
2023/04/30 08:40:26;;;;;;;5.37;4.83;;;;;;;13.49;49.15;102468.34;5055698;28;20464;-48
2023/04/30 08:43:11;;;;;;;4.73;4.30;;;;;;;13.96;48.23;102466.44;5053424;28;20497;-51
2023/04/30 08:45:40;;;;;;;5.90;4.60;;;;;;;13.11;48.34;102475.34;5057207;28;20431;-45
2023/04/30 08:48:12;;;;;;;7.03;5.03;;;;;;;13.10;49.49;102476.34;5051821;28;20514;-47
2023/04/30 08:50:48;;;;;;;4.80;4.47;;;;;;;13.04;48.36;102477.00;5078133;27;20557;-48
2023/04/30 08:53:19;;;;;;;6.70;5.50;;;;;;;13.07;47.48;102473.97;5073483;28;20435;-44
2023/04/30 08:55:48;;;;;;;9.83;4.93;;;;;;;13.34;47.55;102467.41;5073979;28;20429;-44
2023/04/30 08:58:15;;;;;;;4.63;4.27;;;;;;;13.75;49.22;102476.94;5072730;28;20433;-44
2023/04/30 09:00:43;;;;;;;4.77;3.70;;;;;;;14.25;46.21;102463.88;5072392;28;20458;-44
2023/04/30 09:03:11;;;;;;;4.17;3.77;;;;;;;13.38;45.96;102466.88;5071617;28;20433;-44
2023/04/30 09:05:40;;;;;;;4.57;4.17;;;;;;;12.96;47.75;102479.72;5073404;28;20749;-44
2023/04/30 09:08:09;;;;;;;4.97;4.47;;;;;;;12.79;47.34;102470.84;5072704;28;20427;-44
2023/04/30 09:10:37;;;;;;;6.30;5.43;;;;;;;12.23;48.16;102477.03;5072553;28;20463;-42
2023/04/30 09:13:07;;;;;;;5.50;5.00;;;;;;;12.32;47.65;102477.88;5073626;28;20431;-47
2023/04/30 09:15:37;;;;;;;5.13;4.67;;;;;;;12.40;49.36;102478.72;5073424;28;20435;-44
2023/04/30 09:18:09;;;;;;;4.93;4.43;;;;;;;12.44;47.39;102473.88;5073104;28;20430;-46
2023/04/30 09:20:38;;;;;;;6.03;5.10;;;;;;;12.72;49.87;102476.03;5071849;28;20526;-44
2023/04/30 09:23:07;;;;;;;5.43;5.03;;;;;;;13.25;47.75;102471.97;5072039;28;20426;-44
2023/04/30 09:25:41;;;;;;;5.77;4.73;;;;;;;13.24;49.81;102483.69;5072431;28;20466;-42
2023/04/30 09:28:10;;;;;;;4.97;4.43;;;;;;;14.13;47.65;102469.84;5073363;28;20446;-45
2023/04/30 09:30:38;;;;;;;4.90;4.50;;;;;;;14.74;45.18;102471.56;5071463;28;20462;-46
2023/04/30 09:33:06;;;;;;;6.00;5.50;;;;;;;14.92;45.53;102472.06;5072878;28;20802;-44
2023/04/30 09:35:40;;;;;;;9.43;4.90;;;;;;;15.33;45.98;102470.63;5073017;28;20438;-42
2023/04/30 09:38:24;;;;;;;6.70;4.73;;;;;;;15.52;46.03;102457.66;5072413;28;20426;-44
2023/04/30 09:40:53;;;;;;;6.87;5.07;;;;;;;15.78;42.57;102463.34;5066536;28;20466;-45
2023/04/30 09:43:21;;;;;;;7.50;4.60;;;;;;;16.04;45.43;102459.09;5072446;28;20969;-47
2023/04/30 09:45:50;;;;;;;6.53;4.67;;;;;;;16.41;43.70;102463.41;5072420;28;20427;-43
2023/04/30 09:48:20;;;;;;;5.53;4.87;;;;;;;15.89;40.32;102466.38;5071885;28;20429;-47
2023/04/30 09:50:49;;;;;;;7.87;4.90;;;;;;;15.04;42.48;102462.56;5067525;28;20512;-44
2023/04/30 09:53:17;;;;;;;6.10;5.10;;;;;;;14.58;46.18;102471.72;5071337;28;20989;-46
2023/04/30 09:55:46;;;;;;;4.37;4.07;;;;;;;13.06;47.75;102472.31;5072573;28;20437;-47
2023/04/30 09:58:17;;;;;;;9.67;5.77;;;;;;;12.50;49.81;102470.53;5072257;28;20434;-44
2023/04/30 10:00:47;;;;;;;5.60;5.30;;;;;;;12.17;49.81;102462.50;5064513;28;20810;-48
2023/04/30 10:03:15;;;;;;;6.47;5.87;;;;;;;12.52;50.11;102455.97;5052707;28;20439;-42
2023/04/30 10:05:46;;;;;;;7.37;4.77;;;;;;;13.17;48.47;102458.59;5059078;28;20433;-42
2023/04/30 10:08:19;;;;;;;5.90;5.37;;;;;;;12.97;45.86;102457.25;5059115;28;20951;-42
2023/04/30 10:10:50;;;;;;;4.97;4.57;;;;;;;13.05;46.07;102446.53;5039241;28;20575;-44
2023/04/30 10:13:21;;;;;;;5.23;4.80;;;;;;;13.37;48.02;102448.31;5040042;28;20432;-43
2023/04/30 10:15:53;;;;;;;6.07;4.83;;;;;;;13.82;48.22;102443.91;5040698;28;20436;-46
2023/04/30 10:18:26;;;;;;;5.90;4.80;;;;;;;14.12;47.07;102433.31;5040360;28;20913;-47
2023/04/30 10:20:56;;;;;;;4.70;4.30;;;;;;;14.68;46.63;102443.59;5039710;28;20464;-44
2023/04/30 10:23:24;;;;;;;5.80;5.30;;;;;;;15.01;44.29;102429.84;5040433;28;20440;-42
2023/04/30 10:25:52;;;;;;;4.83;4.43;;;;;;;14.86;41.99;102428.00;5051568;28;20442;-45
2023/04/30 10:28:21;;;;;;;6.93;4.30;;;;;;;14.81;46.00;102434.94;5049316;28;20880;-44
2023/04/30 10:30:51;;;;;;;6.40;4.23;;;;;;;15.16;44.96;102430.69;5039344;28;20479;-45
2023/04/30 10:33:25;;;;;;;16.40;4.90;;;;;;;15.20;43.02;102429.31;5038854;28;20432;-42
2023/04/30 10:35:57;;;;;;;8.20;5.20;;;;;;;14.92;45.23;102426.41;5040459;28;20450;-43
2023/04/30 10:38:28;;;;;;;6.30;4.87;;;;;;;14.47;42.73;102427.34;5041059;28;20442;-45
2023/04/30 10:40:57;;;;;;;8.63;5.10;;;;;;;14.04;45.42;102427.97;5040155;28;20464;-42
2023/04/30 10:43:26;;;;;;;4.90;4.50;;;;;;;14.29;45.48;102419.59;5039904;28;20428;-44
2023/04/30 10:45:57;;;;;;;5.00;4.60;;;;;;;13.79;44.44;102419.28;5040501;28;20447;-43
2023/04/30 10:48:26;;;;;;;6.60;4.77;;;;;;;14.10;48.02;102424.59;5040077;28;20519;-45
2023/04/30 10:50:56;;;;;;;8.20;5.17;;;;;;;14.81;46.58;102421.50;5039023;28;20472;-49
2023/04/30 10:53:25;;;;;;;5.30;4.83;;;;;;;14.40;46.18;102418.34;5040182;28;20432;-45
2023/04/30 10:55:54;;;;;;;6.47;5.13;;;;;;;13.53;44.80;102418.78;5040457;28;20447;-42
2023/04/30 10:58:30;;;;;;;5.10;4.60;;;;;;;13.94;44.86;102412.16;5039706;28;20527;-47
2023/04/30 11:01:02;;;;;;;5.27;4.87;;;;;;;13.83;47.33;102412.53;5039702;28;21008;-44
2023/04/30 11:03:31;;;;;;;5.23;4.73;;;;;;;14.59;46.17;102406.28;5039511;28;20436;-43
2023/04/30 11:06:02;;;;;;;4.90;4.50;;;;;;;14.91;45.09;102404.09;5039617;28;20424;-43
2023/04/30 11:08:34;;;;;;;11.77;5.13;;;;;;;15.26;42.32;102396.31;5039599;28;20436;-45
2023/04/30 11:11:03;;;;;;;5.00;4.60;;;;;;;15.41;42.23;102389.06;5031186;28;20483;-42
2023/04/30 11:13:45;;;;;;;6.57;4.80;;;;;;;14.94;43.25;102389.44;5038697;28;20432;-46
2023/04/30 11:16:13;;;;;;;8.40;4.60;;;;;;;14.98;45.16;102387.22;5039512;28;20490;-44
2023/04/30 11:18:44;;;;;;;12.43;4.73;;;;;;;14.64;44.75;102393.97;5039159;28;20432;-48
2023/04/30 11:21:12;;;;;;;6.33;5.50;;;;;;;15.07;45.89;102386.13;5033129;28;20479;-44
2023/04/30 11:23:42;;;;;;;7.03;5.10;;;;;;;15.03;46.59;102382.97;5038512;28;20844;-45
2023/04/30 11:26:10;;;;;;;5.90;5.10;;;;;;;14.77;47.52;102380.75;5052624;28;20435;-49
2023/04/30 11:28:38;;;;;;;5.27;4.80;;;;;;;15.19;46.85;102371.19;5045334;28;20432;-44
2023/04/30 11:31:07;;;;;;;5.00;4.67;;;;;;;14.85;45.30;102374.44;5030630;28;20474;-44